Hot Springs, MT (59845)

12:00 PM MDT on October 25, 2014 (GMT -0600)
Valley View | Change Station
CLOSE
Current Station
Personal Weather Station
Location: Plains, MT
Elevation: 2644 ft
Nearby Weather Stations

Elev 2644 ft 47.44 °N, 114.90 °W | Updated 28 seconds ago

Clear
Clear
44.9 °F
Feels Like 45 °F
N
0.0
Wind Variable Wind from East
Gusts 0.0 mph

Today
High -- | Low -- °F
--% Chance of Precip.
Yesterday
High -- | Low -- °F
Precip. -- in
8:11 AM 6:31 PM
Waxing Crescent, 4% visible
Pressure 29.89 in
Visibility 10.0 miles
Clouds Clear
Windchill 45 °F
Dew Point 41 °F
Humidity 87%
Rainfall 0.00 in
Snow Depth Not available.
UV 3 out of 12
Pollen .30 out of 12
Air Quality Not available.
Flu Activity No Activity
METAR KMSO 251753Z 19005KT 10SM CLR 08/07 A2986 RMK AO2 SLP120 T00830067 10083 20039 58015

More Conditions Fewer Conditions

Pressure 29.89 in
Visibility 10.0 miles
Clouds Clear
Windchill 45 °F
Dew Point 41 °F
Humidity 87%
Rainfall 0.00 in
Snow Depth Not available.
UV 3 out of 12
Pollen .30 out of 12
Air Quality Not available.
Flu Activity No Activity
METAR KMSO 251753Z 19005KT 10SM CLR 08/07 A2986 RMK AO2 SLP120 T00830067 10083 20039 58015

More Conditions Fewer Conditions

10-Day Weather Forecast

Almanac

Astronomy

Oct. 25, 2014 Rise Set
Actual Time 8:11 AM MDT 6:31 PM MDT
Civil Twilight 7:39 AM MDT 7:03 PM MDT
Nautical Twilight 7:03 AM MDT 7:39 PM MDT
Astronomical Twilight 6:28 AM MDT 8:15 PM MDT
Moon 10:00 AM MDT 7:51 PM MDT
Length of Visible Light 11h 23m
Length of Day
10h 20m
Tomorrow will be 3m 12s shorter.
Waxing Crescent, 4% of the Moon is Illuminated
Today
Waxing Crescent
Oct 30
First Quarter
Nov 6
Full
Nov 14
Last Quarter
Nov 22
New

Today's Extremes

State Highs State Lows

Community

WunderPhotos

Upload Photos

1,764,926 photos uploaded!

Nearby

Snow Depth

Station Depth Elevation
Kraft Creek 0 in 4750 ft
North Fork Jocko 0 in 6330 ft
Hoodoo Basin 0 in 6050 ft
Stuart Mountain 2 in 7400 ft
Hand Creek 0 in 5035 ft

Earthquake Activity

City Distance Mag. Time & Date
No recent earthquake activity has been reported nearby.
Minimum magnitude displayed is 2.5.

Coastal Water Temperatures

Place Temperature
No Stations Reporting

Nearby Weather Stations